createdAt,value
2023-08-08T00:00:11.324Z,100.00
2023-08-08T00:02:41.448Z,100.00
2023-08-08T00:05:09.784Z,100.00
2023-08-08T00:07:37.206Z,100.00
2023-08-08T00:10:05.484Z,97.72
2023-08-08T00:12:32.897Z,98.69
2023-08-08T00:15:00.361Z,98.42
2023-08-08T00:17:28.691Z,97.42
2023-08-08T00:19:56.127Z,98.39
2023-08-08T00:22:23.584Z,97.54
2023-08-08T00:24:51.419Z,96.92
2023-08-08T00:27:19.098Z,97.91
2023-08-08T00:29:47.210Z,99.22
2023-08-08T00:32:15.006Z,100.00
2023-08-08T00:34:43.260Z,100.00
2023-08-08T00:37:10.616Z,100.00
2023-08-08T00:39:38.439Z,100.00
2023-08-08T00:42:06.061Z,100.00
2023-08-08T00:44:33.569Z,100.00
2023-08-08T00:47:01.617Z,100.00
2023-08-08T00:49:30.058Z,100.00
2023-08-08T00:51:58.664Z,100.00
2023-08-08T00:54:27.681Z,100.00
2023-08-08T00:56:55.067Z,100.00
2023-08-08T00:59:23.111Z,100.00
2023-08-08T01:01:51.292Z,100.00
2023-08-08T01:04:19.525Z,100.00
2023-08-08T01:06:58.914Z,100.00
2023-08-08T01:09:35.304Z,99.67
2023-08-08T01:12:04.141Z,97.91
2023-08-08T01:14:33.967Z,100.00
2023-08-08T01:17:02.143Z,99.48
2023-08-08T01:19:31.819Z,97.51
2023-08-08T01:22:06.518Z,98.30
2023-08-08T01:24:38.176Z,100.00
2023-08-08T01:27:07.101Z,97.36
2023-08-08T01:29:34.597Z,99.55
2023-08-08T01:32:02.330Z,100.00
2023-08-08T01:34:31.126Z,100.00
2023-08-08T01:37:10.692Z,99.74
2023-08-08T01:39:40.166Z,99.66
2023-08-08T01:42:08.406Z,98.88
2023-08-08T01:44:36.623Z,97.01
2023-08-08T01:47:04.659Z,99.46
2023-08-08T01:49:32.443Z,99.17
2023-08-08T01:52:00.110Z,96.15
2023-08-08T01:54:28.217Z,96.79
2023-08-08T01:56:55.833Z,97.95
2023-08-08T01:59:25.434Z,96.56
2023-08-08T02:01:53.316Z,95.85
2023-08-08T02:04:21.617Z,96.80
2023-08-08T02:06:49.487Z,98.19
2023-08-08T02:09:17.477Z,96.97
2023-08-08T02:11:46.335Z,97.29
2023-08-08T02:14:14.143Z,98.79
2023-08-08T02:16:43.675Z,100.00
2023-08-08T02:19:11.793Z,98.78
2023-08-08T02:21:39.580Z,98.96
2023-08-08T02:24:07.281Z,96.76
2023-08-08T02:26:34.723Z,97.53
2023-08-08T02:29:02.463Z,98.22
2023-08-08T02:31:30.295Z,100.00
2023-08-08T02:33:58.063Z,99.55
2023-08-08T02:36:25.457Z,100.00
2023-08-08T02:38:54.781Z,100.00
2023-08-08T02:41:22.915Z,99.37
2023-08-08T02:43:51.236Z,100.00
2023-08-08T02:46:19.879Z,100.00
2023-08-08T02:48:47.552Z,100.00
2023-08-08T02:51:15.097Z,100.00
2023-08-08T02:53:42.913Z,100.00
2023-08-08T02:56:10.584Z,100.00
2023-08-08T02:58:39.297Z,100.00
2023-08-08T03:01:07.954Z,100.00
2023-08-08T03:03:36.412Z,100.00
2023-08-08T03:06:05.149Z,100.00
2023-08-08T03:08:34.800Z,100.00
2023-08-08T03:11:02.338Z,99.91
2023-08-08T03:13:30.033Z,99.48
2023-08-08T03:15:58.378Z,100.00
2023-08-08T03:18:27.299Z,100.00
2023-08-08T03:20:55.196Z,100.00
2023-08-08T03:23:24.631Z,100.00
2023-08-08T03:25:53.103Z,100.00
2023-08-08T03:28:21.246Z,100.00
2023-08-08T03:30:51.667Z,100.00
2023-08-08T03:33:19.297Z,100.00
2023-08-08T03:35:46.873Z,100.00
2023-08-08T03:38:15.572Z,98.66
2023-08-08T03:40:43.353Z,100.00
2023-08-08T03:43:11.674Z,99.40
2023-08-08T03:45:40.775Z,99.95
2023-08-08T03:48:08.746Z,100.00
2023-08-08T03:50:36.422Z,100.00
2023-08-08T03:53:06.153Z,100.00
2023-08-08T03:55:34.563Z,100.00
2023-08-08T03:58:03.634Z,98.40
2023-08-08T04:00:31.885Z,100.00
2023-08-08T04:03:00.361Z,100.00
2023-08-08T04:05:28.676Z,100.00
2023-08-08T04:07:56.182Z,100.00
2023-08-08T04:10:23.702Z,100.00
2023-08-08T04:12:51.893Z,96.81
2023-08-08T04:15:19.436Z,100.00
2023-08-08T04:17:47.139Z,100.00
2023-08-08T04:20:15.605Z,100.00
2023-08-08T04:22:46.546Z,99.58
2023-08-08T04:25:14.247Z,98.46
2023-08-08T04:27:43.188Z,97.50
2023-08-08T04:30:11.173Z,99.22
2023-08-08T04:32:39.035Z,99.66
2023-08-08T04:35:07.561Z,100.00
2023-08-08T04:37:35.538Z,97.61
2023-08-08T04:40:03.813Z,99.74
2023-08-08T04:42:32.070Z,100.00
2023-08-08T04:44:59.461Z,97.71
2023-08-08T04:47:27.091Z,97.04
2023-08-08T04:49:55.385Z,94.18
2023-08-08T04:52:23.413Z,97.75
2023-08-08T04:54:51.069Z,99.06
2023-08-08T04:57:19.120Z,98.87
2023-08-08T04:59:50.682Z,100.00
2023-08-08T05:02:18.276Z,100.00
2023-08-08T05:04:46.882Z,100.00
2023-08-08T05:07:14.513Z,97.18
2023-08-08T05:09:42.588Z,95.43
2023-08-08T05:12:11.214Z,94.33
2023-08-08T05:14:38.772Z,98.14
2023-08-08T05:17:06.585Z,97.30
2023-08-08T05:19:34.793Z,95.50
2023-08-08T05:22:02.874Z,92.85
2023-08-08T05:24:30.987Z,95.31
2023-08-08T05:26:59.344Z,97.75
2023-08-08T05:29:27.185Z,94.52
2023-08-08T05:31:54.749Z,92.36
2023-08-08T05:34:25.700Z,93.69
2023-08-08T05:37:10.059Z,95.20
2023-08-08T05:39:42.747Z,88.71
2023-08-08T05:42:10.570Z,87.57
2023-08-08T05:44:38.105Z,91.27
2023-08-08T05:47:06.489Z,94.92
2023-08-08T05:49:34.103Z,92.79
2023-08-08T05:52:02.649Z,92.57
2023-08-08T05:54:31.610Z,92.62
2023-08-08T05:56:59.062Z,90.28
2023-08-08T05:59:26.544Z,91.21
2023-08-08T06:01:54.983Z,93.61
2023-08-08T06:04:23.383Z,94.36
2023-08-08T06:06:51.042Z,95.70
2023-08-08T06:09:18.521Z,93.50
2023-08-08T06:11:46.864Z,92.11
2023-08-08T06:14:14.456Z,90.18
2023-08-08T06:16:43.184Z,90.58
2023-08-08T06:19:11.719Z,90.67
2023-08-08T06:21:39.460Z,88.81
2023-08-08T06:24:07.230Z,88.71
2023-08-08T06:26:35.964Z,88.00
2023-08-08T06:29:03.609Z,86.85
2023-08-08T06:31:31.706Z,86.82
2023-08-08T06:33:59.985Z,84.98
2023-08-08T06:36:27.541Z,82.91
2023-08-08T06:38:55.484Z,80.16
2023-08-08T06:41:26.214Z,81.94
2023-08-08T06:43:53.835Z,83.74
2023-08-08T06:46:22.225Z,85.44
2023-08-08T06:48:52.334Z,83.47
2023-08-08T06:51:20.512Z,85.46
2023-08-08T06:53:48.413Z,80.51
2023-08-08T06:56:17.144Z,81.52
2023-08-08T06:58:47.051Z,79.18
2023-08-08T07:01:15.135Z,77.52
2023-08-08T07:03:44.852Z,77.59
2023-08-08T07:06:12.869Z,73.31
2023-08-08T07:08:43.699Z,69.82
2023-08-08T07:11:11.974Z,71.48
2023-08-08T07:13:39.428Z,74.04
2023-08-08T07:16:07.188Z,75.96
2023-08-08T07:18:38.141Z,71.37
2023-08-08T07:21:07.142Z,72.29
2023-08-08T07:23:35.293Z,71.80
2023-08-08T07:26:02.766Z,71.29
2023-08-08T07:28:30.341Z,70.94
2023-08-08T07:30:58.510Z,72.38
2023-08-08T07:33:26.104Z,69.95
2023-08-08T07:35:53.562Z,71.20
2023-08-08T07:38:21.759Z,70.48
2023-08-08T07:40:49.908Z,68.10
2023-08-08T07:43:17.422Z,67.32
2023-08-08T07:45:45.736Z,65.21
2023-08-08T07:48:14.271Z,68.27
2023-08-08T07:50:43.047Z,68.42
2023-08-08T07:53:11.550Z,67.30
2023-08-08T07:55:39.180Z,68.03
2023-08-08T07:58:07.018Z,63.17
2023-08-08T08:00:35.477Z,63.19
2023-08-08T08:03:05.667Z,61.03
2023-08-08T08:05:35.954Z,61.16
2023-08-08T08:08:04.665Z,59.50
2023-08-08T08:10:32.465Z,60.00
2023-08-08T08:13:00.520Z,59.70
2023-08-08T08:15:29.509Z,60.88
2023-08-08T08:17:57.404Z,60.62
2023-08-08T08:20:26.504Z,59.22
2023-08-08T08:22:55.101Z,61.12
2023-08-08T08:25:22.899Z,58.23
2023-08-08T08:27:50.480Z,60.21
2023-08-08T08:30:20.135Z,54.06
2023-08-08T08:32:47.878Z,55.81
2023-08-08T08:35:15.534Z,57.37
2023-08-08T08:37:44.664Z,57.46
2023-08-08T08:40:12.733Z,55.65
2023-08-08T08:42:44.838Z,57.38
2023-08-08T08:45:13.673Z,55.98
2023-08-08T08:47:44.871Z,56.83
2023-08-08T08:50:15.549Z,55.78
2023-08-08T08:52:44.461Z,54.64
2023-08-08T08:55:12.479Z,53.60
2023-08-08T08:57:41.442Z,51.97
2023-08-08T09:00:09.506Z,54.64
2023-08-08T09:02:38.512Z,55.67
2023-08-08T09:05:07.244Z,54.30
2023-08-08T09:07:35.123Z,51.99
2023-08-08T09:10:02.764Z,53.81
2023-08-08T09:12:32.884Z,51.82
2023-08-08T09:15:00.549Z,50.55
2023-08-08T09:17:42.470Z,50.36
2023-08-08T09:20:18.405Z,51.04
2023-08-08T09:22:46.101Z,51.57
2023-08-08T09:25:13.789Z,52.24
2023-08-08T09:27:44.500Z,51.93
2023-08-08T09:30:13.573Z,52.00
2023-08-08T09:32:41.901Z,50.66
2023-08-08T09:35:11.116Z,50.90
2023-08-08T09:37:39.785Z,52.33
2023-08-08T09:40:09.483Z,51.25
2023-08-08T09:42:38.097Z,49.55
2023-08-08T09:45:18.409Z,49.63
2023-08-08T09:47:47.473Z,48.99
2023-08-08T09:50:22.428Z,50.38
2023-08-08T09:52:51.377Z,49.36
2023-08-08T09:55:20.427Z,49.60
2023-08-08T09:57:50.411Z,47.99
2023-08-08T10:00:22.507Z,49.12
2023-08-08T10:02:51.470Z,47.37
2023-08-08T10:05:19.737Z,47.43
2023-08-08T10:07:47.685Z,48.17
2023-08-08T10:10:17.158Z,47.11
2023-08-08T10:12:45.274Z,47.64
2023-08-08T10:15:13.355Z,48.75
2023-08-08T10:17:44.182Z,44.79
2023-08-08T10:20:13.212Z,44.86
2023-08-08T10:22:48.155Z,45.34
2023-08-08T10:25:30.181Z,43.05
2023-08-08T10:28:15.929Z,44.37
2023-08-08T10:30:58.637Z,43.82
2023-08-08T10:33:29.286Z,44.63
2023-08-08T10:35:57.223Z,46.72
2023-08-08T10:38:51.339Z,46.09
2023-08-08T10:41:23.576Z,46.78
2023-08-08T10:43:57.425Z,46.87
2023-08-08T10:46:24.901Z,46.17
2023-08-08T10:48:54.558Z,45.26
2023-08-08T10:51:26.644Z,43.15
2023-08-08T10:53:54.693Z,42.70
2023-08-08T10:56:24.290Z,43.99
2023-08-08T10:58:52.099Z,42.55
2023-08-08T11:01:20.553Z,42.36
2023-08-08T11:03:51.010Z,43.91
2023-08-08T11:06:19.706Z,43.90
2023-08-08T11:08:48.103Z,42.78
2023-08-08T11:11:15.792Z,44.66
2023-08-08T11:13:43.472Z,41.24
2023-08-08T11:16:12.020Z,41.98
2023-08-08T11:18:39.683Z,40.12
2023-08-08T11:21:18.790Z,40.45
2023-08-08T11:23:48.934Z,40.45
2023-08-08T11:26:19.618Z,43.46
2023-08-08T11:28:54.281Z,40.18
2023-08-08T11:31:23.233Z,39.80
2023-08-08T11:33:51.381Z,43.81
2023-08-08T11:36:21.129Z,41.47
2023-08-08T11:38:50.145Z,41.08
2023-08-08T11:41:22.168Z,42.45
2023-08-08T11:43:50.271Z,41.77
2023-08-08T11:46:18.984Z,43.23
2023-08-08T11:48:50.229Z,42.43
2023-08-08T11:51:19.080Z,41.92
2023-08-08T11:53:54.106Z,40.64
2023-08-08T11:56:23.083Z,42.44
2023-08-08T11:58:55.212Z,40.93
2023-08-08T12:01:26.165Z,40.71
2023-08-08T12:03:55.537Z,41.13
2023-08-08T12:06:23.921Z,41.62
2023-08-08T12:08:51.890Z,41.32
2023-08-08T12:11:25.533Z,41.10
2023-08-08T12:14:01.183Z,40.66
2023-08-08T12:16:34.628Z,40.89
2023-08-08T12:19:04.715Z,40.47
2023-08-08T12:21:34.598Z,39.12
2023-08-08T12:24:02.191Z,41.57
2023-08-08T12:26:29.987Z,38.48
2023-08-08T12:28:58.016Z,39.32
2023-08-08T12:31:26.171Z,40.03
2023-08-08T12:33:57.234Z,38.98
2023-08-08T12:36:25.209Z,39.65
2023-08-08T12:38:53.411Z,39.81
2023-08-08T12:41:21.241Z,39.64
2023-08-08T12:43:49.683Z,39.47
2023-08-08T12:46:17.581Z,39.07
2023-08-08T12:48:45.873Z,37.34
2023-08-08T12:51:14.044Z,37.50
2023-08-08T12:53:41.625Z,37.76
2023-08-08T12:56:09.441Z,37.41
2023-08-08T12:58:37.522Z,38.92
2023-08-08T13:01:04.991Z,39.43
2023-08-08T13:03:35.220Z,40.22
2023-08-08T13:06:03.456Z,39.16
2023-08-08T13:08:31.283Z,38.45
2023-08-08T13:10:59.295Z,38.81
2023-08-08T13:13:27.480Z,40.21
2023-08-08T13:15:55.109Z,39.27
2023-08-08T13:18:23.259Z,38.19
2023-08-08T13:20:51.229Z,38.52
2023-08-08T13:23:19.593Z,37.72
2023-08-08T13:25:47.377Z,38.45
2023-08-08T13:28:16.090Z,37.31
2023-08-08T13:30:44.741Z,38.55
2023-08-08T13:33:12.662Z,37.39
2023-08-08T13:35:40.723Z,37.56
2023-08-08T13:38:09.523Z,38.02
2023-08-08T13:40:37.273Z,36.38
2023-08-08T13:43:05.408Z,36.59
2023-08-08T13:45:33.213Z,36.30
2023-08-08T13:48:01.217Z,36.81
2023-08-08T13:50:29.289Z,37.00
2023-08-08T13:52:57.118Z,36.40
2023-08-08T13:55:24.936Z,36.64
2023-08-08T13:57:52.910Z,38.59
2023-08-08T14:00:20.714Z,38.20
2023-08-08T14:02:50.089Z,36.41
2023-08-08T14:05:17.861Z,36.96
2023-08-08T14:07:46.089Z,36.39
2023-08-08T14:10:14.230Z,36.86
2023-08-08T14:12:42.896Z,38.15
2023-08-08T14:15:10.733Z,37.06
2023-08-08T14:17:38.904Z,36.42
2023-08-08T14:20:07.305Z,37.52
2023-08-08T14:22:35.763Z,36.58
2023-08-08T14:25:04.134Z,35.35
2023-08-08T14:27:31.928Z,35.27
2023-08-08T14:30:00.064Z,35.73
2023-08-08T14:32:28.030Z,35.12
2023-08-08T14:34:56.894Z,34.68
2023-08-08T14:37:26.989Z,35.49
2023-08-08T14:39:55.057Z,35.45
2023-08-08T14:42:22.969Z,34.53
2023-08-08T14:44:50.931Z,35.66
2023-08-08T14:47:18.988Z,34.86
2023-08-08T14:49:47.028Z,34.17
2023-08-08T14:52:15.156Z,33.42
2023-08-08T14:54:42.971Z,33.01
2023-08-08T14:57:11.001Z,33.99
2023-08-08T14:59:38.946Z,32.81
2023-08-08T15:02:07.054Z,31.68
2023-08-08T15:04:35.505Z,31.92
2023-08-08T15:07:03.707Z,32.32
2023-08-08T15:09:32.300Z,31.58
2023-08-08T15:12:00.452Z,30.19
2023-08-08T15:14:28.469Z,29.61
2023-08-08T15:16:58.267Z,28.29
2023-08-08T15:19:26.756Z,26.51
2023-08-08T15:21:55.701Z,27.10
2023-08-08T15:24:23.825Z,26.52
2023-08-08T15:26:51.591Z,26.23
2023-08-08T15:29:19.819Z,25.24
2023-08-08T15:31:48.213Z,24.65
2023-08-08T15:34:15.893Z,25.73
2023-08-08T15:36:43.670Z,26.26
2023-08-08T15:39:16.987Z,23.77
2023-08-08T15:41:45.067Z,24.61
2023-08-08T15:44:14.005Z,24.05
2023-08-08T15:46:42.203Z,23.16
2023-08-08T15:49:13.529Z,24.36
2023-08-08T15:51:44.668Z,25.17
2023-08-08T15:54:27.869Z,25.21
2023-08-08T15:56:56.850Z,25.62
2023-08-08T15:59:24.787Z,25.95
2023-08-08T16:01:52.488Z,25.03
2023-08-08T16:04:24.744Z,25.36
2023-08-08T16:06:52.367Z,25.56
2023-08-08T16:09:20.572Z,25.41
2023-08-08T16:11:48.481Z,25.93
2023-08-08T16:14:16.281Z,25.78
2023-08-08T16:16:47.616Z,26.21
2023-08-08T16:19:16.911Z,26.74
2023-08-08T16:21:47.577Z,27.44
2023-08-08T16:24:15.606Z,27.09
2023-08-08T16:26:43.445Z,28.59
2023-08-08T16:29:11.000Z,29.99
2023-08-08T16:31:42.276Z,31.20
2023-08-08T16:34:10.262Z,31.20
2023-08-08T16:36:40.120Z,30.17
2023-08-08T16:39:18.264Z,30.34
2023-08-08T16:41:47.436Z,32.47
2023-08-08T16:44:17.417Z,34.53
2023-08-08T16:46:46.094Z,35.84
2023-08-08T16:49:14.180Z,37.62
2023-08-08T16:51:44.541Z,38.60
2023-08-08T16:54:12.276Z,39.51
2023-08-08T16:56:39.961Z,40.21
2023-08-08T16:59:08.331Z,40.80
2023-08-08T17:01:38.158Z,41.86
2023-08-08T17:04:05.697Z,42.80
2023-08-08T17:06:37.182Z,42.75
2023-08-08T17:09:07.006Z,43.58
2023-08-08T17:11:35.861Z,44.15
2023-08-08T17:14:03.946Z,44.64
2023-08-08T17:16:38.338Z,45.04
2023-08-08T17:19:09.827Z,46.81
2023-08-08T17:21:38.289Z,45.73
2023-08-08T17:24:14.409Z,46.76
2023-08-08T17:26:42.936Z,46.13
2023-08-08T17:29:12.074Z,47.79
2023-08-08T17:31:39.586Z,46.68
2023-08-08T17:34:17.088Z,46.62
2023-08-08T17:36:45.569Z,48.85
2023-08-08T17:39:14.741Z,47.47
2023-08-08T17:41:44.068Z,49.00
2023-08-08T17:44:12.791Z,48.34
2023-08-08T17:46:40.426Z,49.72
2023-08-08T17:49:08.237Z,48.28
2023-08-08T17:51:36.656Z,48.79
2023-08-08T17:54:04.727Z,49.21
2023-08-08T17:56:34.576Z,48.93
2023-08-08T17:59:06.812Z,49.60
2023-08-08T18:01:35.163Z,50.94
2023-08-08T18:04:05.678Z,51.29
2023-08-08T18:06:34.678Z,51.13
2023-08-08T18:09:04.374Z,50.67
2023-08-08T18:11:39.823Z,52.19
2023-08-08T18:14:09.822Z,52.40
2023-08-08T18:16:38.589Z,53.51
2023-08-08T18:19:07.364Z,53.86
2023-08-08T18:21:37.730Z,53.80
2023-08-08T18:24:09.463Z,54.31
2023-08-08T18:26:38.185Z,55.45
2023-08-08T18:29:06.197Z,54.89
2023-08-08T18:31:34.320Z,56.90
2023-08-08T18:34:03.413Z,56.83
2023-08-08T18:36:31.282Z,58.21
2023-08-08T18:38:59.175Z,59.18
2023-08-08T18:41:28.378Z,59.05
2023-08-08T18:43:56.165Z,59.32
2023-08-08T18:46:24.176Z,61.12
2023-08-08T18:48:52.173Z,60.24
2023-08-08T18:51:19.728Z,59.71
2023-08-08T18:53:47.264Z,60.52
2023-08-08T18:56:15.276Z,60.56
2023-08-08T18:58:43.463Z,58.63
2023-08-08T19:01:11.240Z,60.73
2023-08-08T19:03:39.478Z,61.25
2023-08-08T19:06:07.054Z,60.83
2023-08-08T19:08:34.575Z,61.21
2023-08-08T19:11:04.121Z,62.94
2023-08-08T19:13:31.641Z,63.22
2023-08-08T19:15:59.190Z,63.04
2023-08-08T19:18:27.083Z,63.64
2023-08-08T19:20:54.674Z,64.99
2023-08-08T19:23:22.198Z,64.61
2023-08-08T19:25:50.642Z,65.93
2023-08-08T19:28:18.308Z,67.10
2023-08-08T19:30:45.801Z,63.33
2023-08-08T19:33:14.712Z,67.09
2023-08-08T19:35:42.570Z,66.22
2023-08-08T19:38:10.101Z,65.98
2023-08-08T19:40:37.985Z,66.11
2023-08-08T19:43:05.441Z,66.33
2023-08-08T19:45:32.960Z,66.40
2023-08-08T19:48:00.870Z,67.12
2023-08-08T19:50:28.428Z,67.37
2023-08-08T19:52:56.407Z,69.73
2023-08-08T19:55:24.951Z,68.01
2023-08-08T19:57:52.596Z,68.59
2023-08-08T20:00:20.126Z,68.85
2023-08-08T20:02:47.947Z,69.86
2023-08-08T20:05:15.546Z,70.61
2023-08-08T20:07:43.067Z,70.82
2023-08-08T20:10:11.543Z,69.76
2023-08-08T20:12:39.129Z,69.20
2023-08-08T20:15:07.156Z,69.95
2023-08-08T20:17:35.276Z,70.07
2023-08-08T20:20:02.731Z,69.02
2023-08-08T20:22:30.592Z,71.21
2023-08-08T20:24:58.682Z,72.06
2023-08-08T20:27:26.101Z,73.08
2023-08-08T20:29:54.221Z,74.81
2023-08-08T20:32:22.080Z,75.94
2023-08-08T20:34:49.610Z,74.69
2023-08-08T20:37:18.722Z,74.52
2023-08-08T20:39:46.750Z,75.83
2023-08-08T20:42:14.376Z,75.82
2023-08-08T20:44:43.145Z,74.39
2023-08-08T20:47:10.875Z,75.57
2023-08-08T20:49:38.424Z,75.79
2023-08-08T20:52:06.427Z,75.45
2023-08-08T20:54:34.350Z,76.11
2023-08-08T20:57:01.958Z,78.21
2023-08-08T20:59:29.642Z,79.09
2023-08-08T21:01:58.159Z,78.16
2023-08-08T21:07:13.575Z,78.42
2023-08-08T21:09:42.529Z,77.94
2023-08-08T21:12:10.935Z,76.86
2023-08-08T21:14:39.753Z,76.24
2023-08-08T21:17:07.334Z,76.12
2023-08-08T21:19:34.933Z,76.34
2023-08-08T21:22:02.820Z,77.08
2023-08-08T21:24:31.307Z,78.32
2023-08-08T21:26:58.646Z,79.43
2023-08-08T21:29:26.407Z,79.70
2023-08-08T21:31:54.490Z,79.26
2023-08-08T21:34:21.783Z,78.90
2023-08-08T21:36:51.227Z,78.31
2023-08-08T21:39:18.744Z,79.36
2023-08-08T21:41:46.194Z,78.87
2023-08-08T21:44:14.020Z,76.60
2023-08-08T21:46:41.562Z,77.78
2023-08-08T21:49:09.130Z,79.94
2023-08-08T21:51:36.957Z,80.17
2023-08-08T21:54:04.826Z,79.93
2023-08-08T21:56:32.177Z,79.30
2023-08-08T21:58:59.829Z,78.85
2023-08-08T22:01:27.140Z,79.26
2023-08-08T22:03:54.972Z,79.81
2023-08-08T22:06:22.583Z,81.77
2023-08-08T22:08:49.955Z,80.38
2023-08-08T22:11:18.241Z,79.40
2023-08-08T22:13:45.900Z,78.86
2023-08-08T22:16:13.717Z,80.10
2023-08-08T22:18:42.240Z,81.50
2023-08-08T22:21:09.748Z,82.43
2023-08-08T22:23:37.188Z,82.69
2023-08-08T22:26:05.015Z,81.62
2023-08-08T22:28:32.566Z,81.62
2023-08-08T22:31:00.187Z,80.83
2023-08-08T22:33:28.244Z,82.10
2023-08-08T22:35:55.765Z,81.51
2023-08-08T22:38:23.247Z,81.17
2023-08-08T22:40:51.055Z,81.63
2023-08-08T22:43:18.612Z,82.10
2023-08-08T22:45:46.204Z,82.70
2023-08-08T22:48:14.805Z,82.66
2023-08-08T22:50:43.987Z,82.24
2023-08-08T22:53:11.831Z,81.87
2023-08-08T22:55:39.989Z,81.52
2023-08-08T22:58:07.795Z,81.57
2023-08-08T23:00:36.727Z,81.49
2023-08-08T23:03:06.006Z,83.00
2023-08-08T23:05:33.549Z,82.69
2023-08-08T23:08:05.298Z,81.91
2023-08-08T23:10:33.361Z,82.55
2023-08-08T23:13:00.815Z,82.24
2023-08-08T23:15:28.405Z,83.23
2023-08-08T23:17:56.367Z,84.98
2023-08-08T23:20:24.254Z,83.57
2023-08-08T23:22:51.909Z,84.84
2023-08-08T23:25:23.415Z,84.88
2023-08-08T23:27:51.434Z,84.67
2023-08-08T23:30:19.456Z,84.91
2023-08-08T23:32:53.990Z,83.75
2023-08-08T23:35:22.804Z,83.98
2023-08-08T23:37:50.597Z,83.78
2023-08-08T23:40:18.289Z,82.31
2023-08-08T23:42:45.773Z,80.61
2023-08-08T23:45:14.721Z,79.58
2023-08-08T23:47:42.681Z,80.90
2023-08-08T23:50:10.477Z,84.31
2023-08-08T23:52:38.269Z,84.85
2023-08-08T23:55:06.047Z,85.60
2023-08-08T23:57:33.738Z,86.07
